Time;durP1;ratioP1;P1;durP2;ratioP2;P2;SDS_P1;SDS_P2;PMS_P1;PMS_P2;Temp;Humidity;BMP_temperature;BMP_pressure;BME280_temperature;BME280_humidity;BME280_pressure;Samples;Min_cycle;Max_cycle;Signal;HPM_P1;HPM_P2
2023/10/14 00:01:30;;;;;;;9.00;5.10;;;;;;;17.85;48.48;95721.97;4968417;28;20874;-71
2023/10/14 00:03:56;;;;;;;8.47;4.80;;;;;;;17.83;49.63;95721.25;4967568;28;20475;-71
2023/10/14 00:06:22;;;;;;;7.20;4.70;;;;;;;17.84;48.86;95712.34;4952021;28;20444;-72
2023/10/14 00:08:48;;;;;;;9.20;4.40;;;;;;;17.86;48.93;95710.41;4967055;28;20209;-71
2023/10/14 00:11:16;;;;;;;9.10;5.73;;;;;;;17.87;49.21;95720.03;4967907;28;20535;-73
2023/10/14 00:13:48;;;;;;;6.87;4.93;;;;;;;17.87;49.22;95713.88;4966901;28;20443;-71
2023/10/14 00:18:55;;;;;;;9.23;5.70;;;;;;;17.82;49.56;95713.44;4965974;28;20457;-72
2023/10/14 00:21:23;;;;;;;7.50;5.00;;;;;;;17.99;49.37;95715.50;4966790;28;20467;-71
2023/10/14 00:23:50;;;;;;;7.43;5.50;;;;;;;17.88;49.90;95704.94;4965847;28;20444;-71
2023/10/14 00:26:17;;;;;;;11.10;6.07;;;;;;;17.82;50.02;95714.28;4968055;28;20439;-72
2023/10/14 00:28:48;;;;;;;6.90;6.20;;;;;;;17.79;50.41;95709.19;4967382;28;20472;-72
2023/10/14 00:31:13;;;;;;;6.77;5.97;;;;;;;17.92;50.42;95709.84;4966583;28;20429;-72
2023/10/14 00:33:38;;;;;;;14.00;5.10;;;;;;;17.90;50.23;95698.53;4966106;28;20448;-72
2023/10/14 00:36:10;;;;;;;11.53;5.27;;;;;;;18.02;50.49;95703.78;4966843;28;20181;-72
2023/10/14 00:38:37;;;;;;;9.67;5.50;;;;;;;18.01;50.54;95702.94;4968312;28;20178;-72
2023/10/14 00:41:03;;;;;;;10.77;5.00;;;;;;;18.03;50.77;95700.16;4968294;28;20486;-72
2023/10/14 00:43:28;;;;;;;8.40;4.90;;;;;;;18.17;50.62;95695.34;4965663;28;20527;-73
2023/10/14 00:45:54;;;;;;;10.60;5.93;;;;;;;18.08;50.77;95682.03;4966373;28;20186;-72
2023/10/14 00:48:27;;;;;;;6.10;4.57;;;;;;;18.00;50.94;95685.34;4964699;28;20201;-71
2023/10/14 00:50:58;;;;;;;7.67;4.67;;;;;;;17.96;51.12;95690.06;4965942;28;20615;-72
2023/10/14 00:53:27;;;;;;;10.07;5.63;;;;;;;17.96;51.36;95687.41;4965936;28;21123;-72
2023/10/14 00:55:54;;;;;;;5.90;4.70;;;;;;;17.95;51.63;95674.25;4961044;28;20448;-72
2023/10/14 00:58:28;;;;;;;6.17;4.37;;;;;;;17.91;51.77;95671.03;4964982;28;20437;-71
2023/10/14 01:00:59;;;;;;;6.80;5.43;;;;;;;18.08;51.43;95674.91;4965404;28;20460;-73
2023/10/14 01:03:26;;;;;;;10.97;6.40;;;;;;;18.07;51.67;95677.66;4964661;28;21027;-72
2023/10/14 01:05:56;;;;;;;12.80;6.50;;;;;;;18.07;51.81;95681.19;4964920;28;20836;-73
2023/10/14 01:08:24;;;;;;;6.40;5.23;;;;;;;18.03;51.85;95681.59;4951095;28;20663;-73
2023/10/14 01:10:50;;;;;;;11.90;6.10;;;;;;;18.10;51.65;95672.13;4965239;28;20464;-73
2023/10/14 01:13:23;;;;;;;8.00;4.77;;;;;;;18.13;51.83;95685.97;4963933;28;20448;-72
2023/10/14 01:15:58;;;;;;;8.13;5.27;;;;;;;18.02;52.35;95690.50;4965541;28;20766;-72
2023/10/14 01:18:23;;;;;;;7.10;5.50;;;;;;;18.10;52.30;95693.34;4964597;28;20535;-72
2023/10/14 01:20:49;;;;;;;8.30;6.07;;;;;;;18.11;52.36;95687.91;4966124;28;20467;-72
2023/10/14 01:23:14;;;;;;;9.43;5.73;;;;;;;18.13;52.06;95690.44;4966013;28;20184;-72
2023/10/14 01:25:47;;;;;;;8.17;5.73;;;;;;;18.20;52.36;95676.50;4964900;28;20181;-71
2023/10/14 01:28:21;;;;;;;7.70;5.17;;;;;;;18.23;52.08;95671.91;4958323;28;20224;-72
2023/10/14 01:31:10;;;;;;;8.07;5.33;;;;;;;18.20;52.56;95665.03;4965765;28;20464;-72
2023/10/14 01:33:36;;;;;;;7.13;5.50;;;;;;;18.22;52.75;95659.59;4957735;28;20430;-72
2023/10/14 01:36:02;;;;;;;5.47;4.90;;;;;;;18.18;52.67;95653.69;4965781;28;20446;-73
2023/10/14 01:38:30;;;;;;;18.60;6.40;;;;;;;18.18;52.80;95659.00;4965615;28;20552;-73
2023/10/14 01:40:56;;;;;;;8.03;5.40;;;;;;;18.24;53.15;95650.53;4965988;28;20460;-73
2023/10/14 01:43:24;;;;;;;8.20;5.53;;;;;;;18.27;52.97;95649.41;4948900;28;21081;-73
2023/10/14 01:46:00;;;;;;;11.77;6.17;;;;;;;18.27;53.05;95642.28;4971239;28;20177;-73
2023/10/14 01:48:30;;;;;;;12.20;5.77;;;;;;;18.31;53.27;95654.34;4964599;28;20468;-73
2023/10/14 01:50:55;;;;;;;7.93;5.73;;;;;;;18.27;53.49;95654.72;4959838;28;20542;-72
2023/10/14 01:53:28;;;;;;;7.20;5.00;;;;;;;18.30;53.82;95657.13;4965246;28;20432;-72
2023/10/14 01:55:57;;;;;;;14.30;6.37;;;;;;;18.30;53.53;95660.59;4963959;28;20181;-73
2023/10/14 01:58:23;;;;;;;8.83;6.07;;;;;;;18.27;53.84;95666.19;4945135;28;20463;-73
2023/10/14 02:00:58;;;;;;;7.10;6.17;;;;;;;18.36;53.97;95662.72;4964816;28;20468;-72
2023/10/14 02:03:24;;;;;;;5.60;4.90;;;;;;;18.32;54.38;95661.31;4964813;28;20184;-72
2023/10/14 02:05:52;;;;;;;9.90;5.90;;;;;;;18.30;54.16;95662.41;4964150;28;20428;-72
2023/10/14 02:08:21;;;;;;;8.07;5.60;;;;;;;18.36;54.32;95670.72;4965673;28;20830;-72
2023/10/14 02:10:51;;;;;;;9.03;5.83;;;;;;;18.37;54.36;95660.91;4969670;28;20610;-72
2023/10/14 02:13:23;;;;;;;8.33;5.87;;;;;;;18.33;54.62;95644.41;4970093;28;20444;-72
2023/10/14 02:15:51;;;;;;;8.07;5.83;;;;;;;18.48;54.32;95660.00;4968363;28;20536;-71
2023/10/14 02:18:22;;;;;;;10.20;5.50;;;;;;;18.46;54.48;95667.25;4968648;28;20555;-71
2023/10/14 02:21:04;;;;;;;7.43;5.30;;;;;;;18.48;54.56;95667.97;4969045;28;20486;-72
2023/10/14 02:23:30;;;;;;;9.73;5.80;;;;;;;18.56;54.29;95668.97;4968244;28;20781;-71
2023/10/14 02:25:57;;;;;;;10.20;5.70;;;;;;;18.57;54.50;95675.97;4968423;28;20807;-72
2023/10/14 02:28:24;;;;;;;6.97;5.93;;;;;;;18.57;54.84;95673.31;4968127;28;20483;-71
2023/10/14 02:30:51;;;;;;;8.00;6.30;;;;;;;18.60;54.90;95666.88;4968575;28;20460;-71
2023/10/14 02:33:19;;;;;;;9.93;6.50;;;;;;;18.60;54.89;95656.25;4968459;28;20887;-72
2023/10/14 02:35:44;;;;;;;10.20;5.60;;;;;;;18.61;54.84;95658.78;4968887;28;20444;-72
2023/10/14 02:38:10;;;;;;;6.90;6.00;;;;;;;18.51;55.33;95657.91;4968869;28;20491;-72
2023/10/14 02:40:37;;;;;;;8.80;6.07;;;;;;;18.60;55.72;95656.25;4968390;28;20201;-72
2023/10/14 02:43:04;;;;;;;9.20;6.43;;;;;;;18.59;56.10;95662.53;4968219;28;20243;-71
2023/10/14 02:45:37;;;;;;;7.90;5.50;;;;;;;18.58;56.25;95659.03;4968642;28;20468;-72
2023/10/14 02:48:04;;;;;;;14.47;7.90;;;;;;;18.55;56.54;95658.47;4968420;28;20507;-72
2023/10/14 02:50:31;;;;;;;8.77;6.57;;;;;;;18.51;56.81;95646.44;4968040;28;21058;-72
2023/10/14 02:53:01;;;;;;;7.63;6.27;;;;;;;18.50;57.03;95650.06;4968051;28;20533;-72
2023/10/14 02:55:27;;;;;;;7.93;6.90;;;;;;;18.42;57.62;95637.44;4967050;28;22342;-72
2023/10/14 02:57:53;;;;;;;11.40;5.80;;;;;;;18.53;57.93;95644.47;4967932;28;20437;-72
2023/10/14 03:00:29;;;;;;;8.50;6.70;;;;;;;18.50;58.39;95639.44;4967073;28;20495;-72
2023/10/14 03:03:09;;;;;;;9.80;6.67;;;;;;;18.34;59.21;95647.91;4949194;28;20177;-72
2023/10/14 03:05:53;;;;;;;8.37;6.37;;;;;;;18.37;59.49;95647.63;4967536;28;20531;-72
2023/10/14 03:08:20;;;;;;;10.77;7.07;;;;;;;18.33;59.13;95652.38;4966849;28;20595;-72
2023/10/14 03:10:46;;;;;;;11.23;6.57;;;;;;;18.26;59.90;95642.41;4968336;28;20464;-72
2023/10/14 03:13:12;;;;;;;8.17;7.20;;;;;;;18.33;59.46;95652.38;4967754;28;20467;-74
2023/10/14 03:15:42;;;;;;;8.67;6.40;;;;;;;18.30;59.70;95644.66;4973593;28;20440;-73
2023/10/14 03:18:07;;;;;;;10.40;6.83;;;;;;;18.29;59.87;95650.13;4964337;28;20979;-71
2023/10/14 03:20:39;;;;;;;6.80;6.20;;;;;;;18.23;60.02;95642.69;4963544;28;20448;-72
2023/10/14 03:25:39;;;;;;;11.20;6.10;;;;;;;18.22;59.88;95636.53;4967406;28;20448;-72
2023/10/14 03:30:37;;;;;;;8.60;6.17;;;;;;;18.31;59.47;95626.94;4962667;28;20300;-72
2023/10/14 03:33:09;;;;;;;7.80;6.30;;;;;;;18.22;59.65;95625.06;4967434;28;20607;-72
2023/10/14 03:35:36;;;;;;;10.80;7.07;;;;;;;18.27;59.44;95620.19;4960587;28;20441;-72
2023/10/14 03:38:11;;;;;;;7.57;6.70;;;;;;;18.24;59.46;95634.59;4967114;28;20433;-72
2023/10/14 03:43:18;;;;;;;8.40;6.90;;;;;;;18.28;59.62;95630.66;4968040;28;20441;-72
2023/10/14 03:45:56;;;;;;;8.23;7.33;;;;;;;18.23;59.43;95624.09;4949989;28;20437;-71
2023/10/14 03:48:35;;;;;;;10.53;7.77;;;;;;;18.20;59.73;95622.53;4967810;28;20964;-71
2023/10/14 03:51:03;;;;;;;11.80;7.60;;;;;;;18.23;59.72;95621.44;4967760;28;20747;-71
2023/10/14 03:53:32;;;;;;;9.00;7.07;;;;;;;18.16;60.24;95629.09;4966521;28;20452;-72
2023/10/14 03:56:00;;;;;;;7.67;6.23;;;;;;;18.28;59.90;95620.03;4967057;28;20440;-73
2023/10/14 03:58:26;;;;;;;10.37;6.47;;;;;;;18.29;59.89;95618.25;4965973;28;20464;-73
2023/10/14 04:00:52;;;;;;;8.70;6.00;;;;;;;18.36;59.97;95614.94;4966311;28;20892;-73
2023/10/14 04:03:39;;;;;;;8.60;5.67;;;;;;;18.34;60.29;95616.03;4967372;28;20607;-73
2023/10/14 04:06:07;;;;;;;7.53;6.77;;;;;;;18.39;60.12;95612.00;4963192;28;20447;-73
2023/10/14 04:08:39;;;;;;;12.20;6.37;;;;;;;18.33;60.01;95615.19;4966736;28;20832;-73
2023/10/14 04:11:13;;;;;;;10.23;6.73;;;;;;;18.25;61.21;95620.31;4966321;28;20437;-73
2023/10/14 04:13:42;;;;;;;7.90;6.07;;;;;;;18.23;61.29;95627.56;4965526;28;20478;-71
2023/10/14 04:16:11;;;;;;;7.30;5.90;;;;;;;18.26;61.49;95624.69;4966818;28;20464;-71
2023/10/14 04:18:37;;;;;;;8.07;5.83;;;;;;;18.29;61.63;95618.25;4950982;28;20422;-71
2023/10/14 04:21:26;;;;;;;12.70;6.13;;;;;;;18.30;61.77;95625.25;4966534;28;20467;-72
2023/10/14 04:24:09;;;;;;;7.50;6.07;;;;;;;18.32;61.64;95625.94;4966090;28;20663;-72
2023/10/14 04:26:36;;;;;;;6.00;5.40;;;;;;;18.56;60.71;95614.97;4965387;28;20810;-71
2023/10/14 04:29:03;;;;;;;7.60;6.50;;;;;;;18.52;61.20;95611.75;4966562;28;20476;-71
2023/10/14 04:31:41;;;;;;;6.60;5.90;;;;;;;18.45;61.41;95607.09;4966356;28;20995;-71
2023/10/14 04:34:08;;;;;;;6.27;5.60;;;;;;;18.46;61.70;95595.53;4966746;28;21219;-71
2023/10/14 04:36:37;;;;;;;9.30;5.93;;;;;;;18.48;61.61;95602.38;4967058;28;20443;-71
2023/10/14 04:39:13;;;;;;;9.73;6.50;;;;;;;18.43;62.05;95596.63;4965300;28;20464;-72
2023/10/14 04:41:45;;;;;;;9.73;6.13;;;;;;;18.44;62.04;95598.31;4965094;28;20440;-72
2023/10/14 04:44:12;;;;;;;7.83;5.50;;;;;;;18.48;62.09;95604.19;4963641;28;20494;-71
2023/10/14 04:46:54;;;;;;;10.00;6.30;;;;;;;18.43;62.27;95606.44;4966643;28;20448;-71
2023/10/14 04:49:35;;;;;;;6.60;5.90;;;;;;;18.50;62.32;95619.03;4966139;28;20531;-72
2023/10/14 04:52:04;;;;;;;10.90;6.60;;;;;;;18.50;62.25;95612.88;4961967;28;20456;-71
2023/10/14 04:54:34;;;;;;;10.97;5.63;;;;;;;18.50;62.37;95616.38;4967050;28;20444;-73
2023/10/14 04:56:59;;;;;;;7.57;5.80;;;;;;;18.55;62.44;95605.34;4965805;28;20499;-72
2023/10/14 04:59:27;;;;;;;7.07;5.80;;;;;;;18.46;62.96;95614.13;4965330;28;20456;-72
2023/10/14 05:01:55;;;;;;;10.17;6.77;;;;;;;18.52;62.68;95608.25;4965165;28;20681;-72
2023/10/14 05:04:22;;;;;;;6.63;5.87;;;;;;;18.47;63.13;95624.59;4966294;28;20833;-73
2023/10/14 05:06:52;;;;;;;13.07;6.70;;;;;;;18.56;63.04;95612.31;4966597;28;20433;-73
2023/10/14 05:09:30;;;;;;;14.03;6.93;;;;;;;18.51;63.21;95614.56;4968535;28;20963;-72
2023/10/14 05:11:57;;;;;;;15.07;7.30;;;;;;;18.43;63.89;95617.88;4971122;28;20548;-73
2023/10/14 05:14:38;;;;;;;10.23;7.07;;;;;;;18.45;63.56;95621.25;4969079;28;21124;-73
2023/10/14 05:17:16;;;;;;;10.03;6.50;;;;;;;18.49;63.94;95624.47;4961641;28;20515;-73
2023/10/14 05:19:43;;;;;;;8.33;6.70;;;;;;;18.54;64.04;95617.78;4948380;28;20448;-72
2023/10/14 05:22:11;;;;;;;8.33;5.83;;;;;;;18.54;64.16;95623.09;4965818;28;20440;-73
2023/10/14 05:24:39;;;;;;;7.90;6.80;;;;;;;18.40;64.74;95632.28;4965329;28;20437;-73
2023/10/14 05:27:05;;;;;;;7.80;5.70;;;;;;;18.50;64.67;95628.81;4966357;28;20495;-73
2023/10/14 05:29:31;;;;;;;8.03;6.73;;;;;;;18.54;64.93;95640.84;4966735;28;20909;-73
2023/10/14 05:32:15;;;;;;;8.00;6.60;;;;;;;18.44;65.11;95637.31;4966243;28;20261;-72
2023/10/14 05:34:43;;;;;;;7.03;6.30;;;;;;;18.47;65.06;95640.53;4965427;28;20189;-73
2023/10/14 05:37:12;;;;;;;8.80;6.43;;;;;;;18.39;65.52;95643.88;4967781;28;20461;-72
2023/10/14 05:39:39;;;;;;;8.53;7.67;;;;;;;18.41;65.75;95644.56;4963801;28;20445;-72
2023/10/14 05:42:13;;;;;;;11.17;6.77;;;;;;;18.49;65.59;95648.38;4958381;28;20442;-73
2023/10/14 05:44:49;;;;;;;11.07;6.47;;;;;;;18.47;65.75;95650.31;4960344;28;20460;-72
2023/10/14 05:47:19;;;;;;;9.60;6.57;;;;;;;18.53;65.50;95661.25;4966415;28;21549;-73
2023/10/14 05:49:44;;;;;;;10.30;6.50;;;;;;;18.43;65.99;95654.25;4968786;28;20480;-73
2023/10/14 05:52:13;;;;;;;9.63;8.40;;;;;;;18.37;66.41;95661.75;4965031;28;20455;-74
2023/10/14 05:54:42;;;;;;;9.07;7.07;;;;;;;18.44;66.15;95667.38;4981041;28;20265;-72
2023/10/14 05:57:11;;;;;;;21.40;8.30;;;;;;;18.55;65.41;95666.44;4972158;28;20549;-72
2023/10/14 05:59:37;;;;;;;10.27;6.77;;;;;;;18.59;65.45;95670.50;4957618;28;20535;-73
2023/10/14 06:02:07;;;;;;;10.37;6.70;;;;;;;18.65;65.12;95679.78;4967005;28;20463;-73
2023/10/14 06:04:39;;;;;;;11.57;7.10;;;;;;;18.67;64.94;95673.34;4966837;28;20762;-74
2023/10/14 06:07:09;;;;;;;9.80;6.70;;;;;;;18.53;65.97;95681.69;4968401;28;20887;-74
2023/10/14 06:09:36;;;;;;;7.07;6.33;;;;;;;18.45;66.29;95684.16;4966496;28;20499;-73
2023/10/14 06:12:05;;;;;;;7.30;6.27;;;;;;;18.45;66.61;95674.38;4966060;28;20469;-73
2023/10/14 06:14:32;;;;;;;7.60;6.40;;;;;;;18.47;66.52;95691.00;4965758;28;20916;-73
2023/10/14 06:16:58;;;;;;;7.63;6.73;;;;;;;18.37;66.86;95692.78;4966473;28;20463;-74
2023/10/14 06:19:24;;;;;;;8.50;6.83;;;;;;;18.33;67.30;95694.88;4966270;28;20523;-74
2023/10/14 06:21:49;;;;;;;9.30;6.23;;;;;;;18.28;67.78;95694.41;4967107;28;20174;-73
2023/10/14 06:24:15;;;;;;;8.37;6.63;;;;;;;18.37;67.47;95703.41;4966946;28;20420;-72
2023/10/14 06:26:41;;;;;;;9.70;7.40;;;;;;;18.43;67.25;95708.22;4966973;28;20689;-73
2023/10/14 06:29:09;;;;;;;7.00;5.97;;;;;;;18.34;67.68;95698.38;4966314;28;20567;-74
2023/10/14 06:31:37;;;;;;;10.17;6.73;;;;;;;18.37;67.70;95709.56;4967094;28;20173;-74
2023/10/14 06:34:08;;;;;;;7.07;6.30;;;;;;;18.38;67.64;95718.41;4966915;28;20429;-74
2023/10/14 06:36:37;;;;;;;15.30;7.27;;;;;;;18.46;67.51;95715.06;4966397;28;20499;-74
2023/10/14 06:39:13;;;;;;;8.37;6.70;;;;;;;18.48;67.55;95710.47;4966149;28;20472;-74
2023/10/14 06:41:45;;;;;;;9.20;6.27;;;;;;;18.41;67.40;95713.66;4966493;28;20499;-73
2023/10/14 06:44:15;;;;;;;7.53;6.63;;;;;;;18.44;67.59;95711.69;4966499;28;20864;-74
2023/10/14 06:46:44;;;;;;;7.27;5.70;;;;;;;18.57;66.88;95718.47;4966514;28;20413;-72
2023/10/14 06:49:13;;;;;;;8.20;7.10;;;;;;;18.50;67.09;95727.13;4965649;28;20497;-73
2023/10/14 06:51:42;;;;;;;9.03;7.03;;;;;;;18.50;67.07;95732.44;4966050;28;20860;-73
2023/10/14 06:54:13;;;;;;;7.53;6.20;;;;;;;18.44;67.29;95733.78;4966260;28;20845;-73
2023/10/14 06:56:40;;;;;;;10.57;6.53;;;;;;;18.50;67.05;95729.78;4968907;28;20436;-72
2023/10/14 06:59:06;;;;;;;10.10;6.60;;;;;;;18.53;66.84;95734.81;4969285;28;20507;-73
2023/10/14 07:01:33;;;;;;;11.70;6.07;;;;;;;18.59;66.38;95739.59;4969620;28;20421;-71
2023/10/14 07:03:58;;;;;;;11.50;6.93;;;;;;;18.50;67.15;95729.78;4970035;28;20181;-72
2023/10/14 07:06:25;;;;;;;6.90;6.20;;;;;;;18.52;66.61;95727.81;4969928;28;21211;-73
2023/10/14 07:08:51;;;;;;;8.83;7.80;;;;;;;18.50;66.70;95725.31;4969764;28;20284;-73
2023/10/14 07:11:17;;;;;;;6.50;5.80;;;;;;;18.55;66.54;95730.22;4970463;28;20417;-73
2023/10/14 07:13:42;;;;;;;7.87;6.10;;;;;;;18.56;66.56;95726.56;4970093;28;20413;-72
2023/10/14 07:16:08;;;;;;;6.93;5.90;;;;;;;18.71;65.88;95730.56;4970178;28;20184;-74
2023/10/14 07:18:37;;;;;;;11.23;6.37;;;;;;;18.60;66.21;95738.63;4969754;28;20720;-72
2023/10/14 07:21:03;;;;;;;8.00;5.43;;;;;;;18.69;65.82;95735.19;4969449;28;20180;-72
2023/10/14 07:23:36;;;;;;;7.00;5.33;;;;;;;18.71;65.74;95743.88;4969772;28;20463;-72
2023/10/14 07:26:11;;;;;;;10.07;6.20;;;;;;;18.94;64.74;95749.00;4970010;28;20413;-73
2023/10/14 07:28:46;;;;;;;11.33;6.90;;;;;;;19.80;62.20;95742.19;4969641;28;20512;-73
2023/10/14 07:31:12;;;;;;;6.57;5.77;;;;;;;19.88;61.74;95746.81;4969601;28;20490;-73
2023/10/14 07:33:39;;;;;;;14.70;6.50;;;;;;;20.30;60.38;95752.66;4969831;28;20416;-72
2023/10/14 07:36:11;;;;;;;13.77;5.53;;;;;;;20.64;59.27;95754.00;4969607;28;20420;-72
2023/10/14 07:38:37;;;;;;;13.40;6.07;;;;;;;21.07;57.72;95747.22;4951361;28;20720;-73
2023/10/14 07:41:03;;;;;;;10.43;6.37;;;;;;;20.73;58.38;95748.63;4969257;28;20424;-74
2023/10/14 07:43:29;;;;;;;11.60;5.43;;;;;;;20.69;58.96;95749.94;4969350;28;20177;-74
2023/10/14 07:45:54;;;;;;;7.77;5.30;;;;;;;20.67;58.96;95756.38;4969540;28;20720;-74
2023/10/14 07:48:22;;;;;;;11.03;5.90;;;;;;;21.01;58.27;95758.50;4969776;28;20267;-73
2023/10/14 07:50:49;;;;;;;9.40;5.87;;;;;;;21.50;56.24;95741.28;4969312;28;20209;-74
2023/10/14 07:53:23;;;;;;;8.30;5.60;;;;;;;21.10;57.37;95755.78;4968698;28;20425;-74
2023/10/14 07:55:51;;;;;;;21.93;6.00;;;;;;;21.78;55.69;95744.72;4968936;28;20935;-73
2023/10/14 07:58:19;;;;;;;8.20;5.30;;;;;;;22.71;52.69;95743.44;4950536;28;20417;-73
2023/10/14 08:00:50;;;;;;;9.57;5.53;;;;;;;23.35;50.91;95733.22;4949231;28;20438;-73
2023/10/14 08:03:22;;;;;;;7.77;5.40;;;;;;;22.55;52.46;95750.34;4949654;29;20438;-74
2023/10/14 08:05:51;;;;;;;9.50;5.47;;;;;;;22.45;52.85;95738.94;4948914;28;20425;-74
2023/10/14 08:08:17;;;;;;;8.13;5.23;;;;;;;21.87;54.53;95729.59;4948711;29;20557;-73
2023/10/14 08:10:45;;;;;;;10.17;6.27;;;;;;;21.67;55.43;95728.91;4948909;28;20426;-73
2023/10/14 08:13:12;;;;;;;14.83;7.30;;;;;;;22.21;53.57;95725.41;4949094;29;20414;-73
2023/10/14 08:15:38;;;;;;;9.23;6.53;;;;;;;21.83;54.45;95749.59;4949138;29;20412;-73
2023/10/14 08:18:07;;;;;;;9.40;6.70;;;;;;;21.32;55.71;95749.19;4948857;29;20509;-74
2023/10/14 08:20:34;;;;;;;7.70;6.27;;;;;;;21.23;55.93;95758.09;4948910;28;20440;-73
2023/10/14 08:23:00;;;;;;;10.60;6.70;;;;;;;21.09;56.27;95763.94;4949330;29;20525;-74
2023/10/14 08:25:28;;;;;;;8.73;6.07;;;;;;;21.06;56.46;95754.41;4931443;29;20841;-74
2023/10/14 08:27:54;;;;;;;8.90;6.10;;;;;;;21.21;55.84;95764.56;4949172;29;20529;-74
2023/10/14 08:30:24;;;;;;;11.53;6.13;;;;;;;22.09;53.78;95768.38;4949673;28;20442;-73
2023/10/14 08:32:51;;;;;;;12.17;5.73;;;;;;;22.43;52.39;95764.97;4948723;29;20413;-73
2023/10/14 08:35:17;;;;;;;7.73;6.17;;;;;;;22.41;52.44;95765.13;4948607;29;20889;-73
2023/10/14 08:37:47;;;;;;;12.70;5.87;;;;;;;22.24;53.24;95778.53;4948936;29;20457;-73
2023/10/14 08:40:25;;;;;;;8.50;6.57;;;;;;;22.48;52.35;95770.69;4949259;28;20438;-73
2023/10/14 08:42:58;;;;;;;11.77;5.73;;;;;;;23.07;51.03;95764.72;4949364;29;20925;-74
2023/10/14 08:45:26;;;;;;;11.70;6.83;;;;;;;22.97;50.63;95760.28;4948876;29;20523;-74
2023/10/14 08:47:54;;;;;;;10.47;6.23;;;;;;;22.47;51.96;95768.19;4948438;29;20464;-73
2023/10/14 08:50:23;;;;;;;11.00;5.80;;;;;;;22.23;52.55;95784.88;4948757;28;20449;-73
2023/10/14 08:52:50;;;;;;;12.07;5.37;;;;;;;22.67;50.79;95779.53;4948679;29;20838;-74
2023/10/14 08:55:18;;;;;;;8.27;5.43;;;;;;;22.24;52.22;95782.03;4948294;29;20933;-75
2023/10/14 08:57:46;;;;;;;9.73;5.60;;;;;;;22.68;51.44;95784.72;4943861;28;20431;-73
2023/10/14 09:00:20;;;;;;;13.10;5.93;;;;;;;22.77;51.40;95782.91;4967319;28;20460;-73
2023/10/14 09:02:50;;;;;;;9.07;6.57;;;;;;;23.22;50.39;95776.50;4967516;28;20416;-73
2023/10/14 09:05:16;;;;;;;7.07;6.33;;;;;;;23.50;49.61;95776.28;4967352;28;20417;-74
2023/10/14 09:07:44;;;;;;;8.37;5.60;;;;;;;23.92;48.42;95767.34;4967135;28;20413;-74
2023/10/14 09:10:11;;;;;;;7.20;5.50;;;;;;;23.67;48.83;95776.16;4967645;28;20452;-73
2023/10/14 09:12:36;;;;;;;11.40;6.70;;;;;;;23.85;48.46;95775.22;4967295;28;20507;-74
2023/10/14 09:15:03;;;;;;;9.07;6.53;;;;;;;24.14;47.98;95772.06;4968170;28;20504;-73
2023/10/14 09:17:29;;;;;;;6.43;5.77;;;;;;;24.48;47.22;95777.28;4966767;28;20726;-74
2023/10/14 09:19:55;;;;;;;6.73;6.03;;;;;;;24.37;46.83;95774.09;4966924;28;20948;-73
2023/10/14 09:22:28;;;;;;;10.10;5.53;;;;;;;23.73;48.38;95777.34;4967357;28;20516;-74
2023/10/14 09:24:58;;;;;;;8.67;6.73;;;;;;;23.56;49.23;95767.59;4967269;28;20425;-75
2023/10/14 09:27:26;;;;;;;8.40;6.10;;;;;;;23.30;49.90;95765.00;4967804;28;20772;-74
2023/10/14 09:29:52;;;;;;;18.90;7.23;;;;;;;23.25;49.72;95777.03;4967275;28;20460;-74
2023/10/14 09:32:18;;;;;;;9.30;6.30;;;;;;;23.90;48.10;95766.69;4967682;28;20462;-74
2023/10/14 09:34:43;;;;;;;18.27;6.20;;;;;;;24.14;47.56;95774.72;4949919;28;20429;-73
2023/10/14 09:37:12;;;;;;;9.00;5.60;;;;;;;23.59;48.20;95786.00;4967551;28;20173;-74
2023/10/14 09:39:42;;;;;;;15.53;5.97;;;;;;;23.11;49.47;95787.50;4966992;28;20201;-72
2023/10/14 09:42:11;;;;;;;11.67;6.13;;;;;;;22.65;50.52;95790.38;4967275;28;20417;-74
2023/10/14 09:44:44;;;;;;;18.30;6.00;;;;;;;22.54;50.69;95787.97;4967435;28;20831;-73
2023/10/14 09:47:14;;;;;;;10.27;6.77;;;;;;;22.36;51.37;95782.63;4967882;28;20416;-74
2023/10/14 09:49:43;;;;;;;9.17;6.10;;;;;;;22.43;51.47;95797.06;4966904;28;20838;-74
2023/10/14 09:52:14;;;;;;;9.03;5.33;;;;;;;22.84;50.19;95781.28;4967252;28;20409;-74
2023/10/14 09:54:41;;;;;;;10.37;6.67;;;;;;;22.80;50.29;95802.19;4967151;28;20424;-73
2023/10/14 09:57:10;;;;;;;9.13;5.97;;;;;;;22.57;50.69;95796.50;4958522;28;20429;-74
2023/10/14 09:59:40;;;;;;;11.23;6.43;;;;;;;22.60;50.78;95784.66;4947668;28;21243;-74
2023/10/14 10:02:09;;;;;;;14.50;7.03;;;;;;;22.48;50.83;95778.72;4947937;29;20885;-73
2023/10/14 10:04:41;;;;;;;14.53;6.53;;;;;;;22.37;51.29;95789.66;4948148;29;20406;-73
2023/10/14 10:07:16;;;;;;;10.27;6.43;;;;;;;22.25;51.57;95781.03;4948000;29;20422;-74
2023/10/14 10:10:10;;;;;;;6.53;5.27;;;;;;;22.47;51.07;95778.91;4947532;28;20829;-72
2023/10/14 10:12:38;;;;;;;9.30;5.60;;;;;;;22.60;50.64;95776.63;4943502;29;20449;-73
2023/10/14 10:15:06;;;;;;;7.20;6.20;;;;;;;23.04;49.57;95772.06;4947808;29;20604;-73
2023/10/14 10:17:39;;;;;;;6.00;5.40;;;;;;;23.31;48.48;95767.50;4930488;29;21263;-73
2023/10/14 10:20:09;;;;;;;10.90;7.27;;;;;;;22.84;49.56;95754.53;4947652;28;20529;-73
2023/10/14 10:22:41;;;;;;;18.53;6.80;;;;;;;22.63;50.40;95768.31;4947633;29;20425;-73
2023/10/14 10:25:09;;;;;;;14.00;5.33;;;;;;;22.48;50.74;95775.22;4947438;29;20540;-71
2023/10/14 10:27:36;;;;;;;16.77;6.43;;;;;;;22.21;51.40;95781.53;4948017;29;20853;-73
2023/10/14 10:30:08;;;;;;;15.90;5.10;;;;;;;21.87;52.20;95777.66;4932787;29;20441;-74
2023/10/14 10:32:33;;;;;;;15.83;6.40;;;;;;;21.50;53.01;95775.97;4952423;29;20940;-74
2023/10/14 10:35:05;;;;;;;12.00;5.50;;;;;;;21.38;54.01;95770.94;4950728;29;20421;-73
2023/10/14 10:37:33;;;;;;;7.47;5.07;;;;;;;21.08;55.81;95784.44;4933072;29;20221;-75
2023/10/14 10:39:59;;;;;;;6.00;5.40;;;;;;;21.08;56.07;95784.44;4950252;28;21348;-73
2023/10/14 10:42:25;;;;;;;6.07;4.43;;;;;;;20.94;57.52;95783.09;4932678;29;20437;-73
2023/10/14 10:44:50;;;;;;;7.20;4.20;;;;;;;20.80;58.76;95793.41;4950513;29;20429;-72
2023/10/14 10:47:16;;;;;;;9.73;4.43;;;;;;;20.57;60.39;95780.41;4950403;29;20232;-74
2023/10/14 10:49:58;;;;;;;5.37;4.10;;;;;;;20.37;61.42;95782.25;4949736;28;20301;-74
2023/10/14 10:52:25;;;;;;;5.63;4.00;;;;;;;20.42;61.62;95795.13;4950165;29;20414;-72
2023/10/14 10:54:52;;;;;;;7.50;4.03;;;;;;;20.18;62.93;95790.25;4949877;29;20508;-73
2023/10/14 10:57:18;;;;;;;12.97;4.70;;;;;;;20.01;63.33;95782.00;4959718;28;20429;-73
2023/10/14 10:59:43;;;;;;;8.03;4.50;;;;;;;19.81;64.29;95778.47;4968817;28;21263;-72
2023/10/14 11:02:10;;;;;;;6.70;4.10;;;;;;;19.80;64.78;95787.47;4951295;28;20433;-73
2023/10/14 11:04:38;;;;;;;5.93;4.30;;;;;;;19.83;65.07;95789.00;4968902;28;20665;-73
2023/10/14 11:07:06;;;;;;;6.00;4.70;;;;;;;19.75;65.00;95786.19;4969557;28;20602;-71
2023/10/14 11:09:31;;;;;;;31.60;7.80;;;;;;;19.60;66.22;95781.22;4968643;28;20464;-71
2023/10/14 11:12:01;;;;;;;7.97;5.20;;;;;;;19.50;66.94;95783.03;4969216;28;20421;-72
2023/10/14 11:14:27;;;;;;;8.30;4.97;;;;;;;19.64;67.53;95789.78;4969329;28;20264;-72
2023/10/14 11:16:57;;;;;;;9.83;5.47;;;;;;;19.72;67.10;95781.97;4968620;28;20527;-72
2023/10/14 11:19:26;;;;;;;13.10;7.27;;;;;;;19.72;67.67;95784.63;4968448;28;20574;-72
2023/10/14 11:21:53;;;;;;;23.10;6.73;;;;;;;19.71;67.30;95785.63;4968674;28;20420;-72
2023/10/14 11:24:19;;;;;;;10.40;6.17;;;;;;;19.65;67.81;95784.34;4968763;28;20405;-71
2023/10/14 11:26:45;;;;;;;6.43;5.30;;;;;;;19.71;68.21;95788.28;4969119;28;20425;-72
2023/10/14 11:29:11;;;;;;;10.87;6.73;;;;;;;19.74;67.54;95780.00;4950968;28;20229;-71
2023/10/14 11:31:39;;;;;;;9.10;6.90;;;;;;;19.73;68.23;95788.16;4968604;28;20503;-72
2023/10/14 11:34:05;;;;;;;11.13;7.10;;;;;;;19.72;68.53;95797.94;4968756;28;20417;-71
2023/10/14 11:36:30;;;;;;;9.43;6.50;;;;;;;19.60;68.60;95788.38;4968901;28;20501;-73
2023/10/14 11:38:58;;;;;;;11.90;6.63;;;;;;;19.66;68.73;95786.00;4968265;28;20253;-73
2023/10/14 11:41:26;;;;;;;15.83;6.43;;;;;;;19.69;68.74;95789.41;4967458;28;20264;-71
2023/10/14 11:43:52;;;;;;;13.13;6.57;;;;;;;19.67;69.43;95797.50;4968588;28;20504;-72
2023/10/14 11:46:17;;;;;;;7.30;4.77;;;;;;;19.54;66.29;95797.75;4954853;28;20433;-71
2023/10/14 11:48:47;;;;;;;4.00;1.80;;;;;;;19.17;63.57;95784.22;4968700;28;20563;-72